sensor_id;sensor_type;location;lat;lon;timestamp;P1;durP1;ratioP1;P2;durP2;ratioP2
12776;SDS011;6452;41.572;23.732;2023-04-03T00:01:44;0.85;;;0.85;;
12776;SDS011;6452;41.572;23.732;2023-04-03T00:04:11;0.70;;;0.70;;
12776;SDS011;6452;41.572;23.732;2023-04-03T00:06:36;1.20;;;1.15;;
12776;SDS011;6452;41.572;23.732;2023-04-03T00:09:02;1.40;;;1.30;;
12776;SDS011;6452;41.572;23.732;2023-04-03T00:11:29;1.00;;;0.93;;
12776;SDS011;6452;41.572;23.732;2023-04-03T00:13:55;3.22;;;0.80;;
12776;SDS011;6452;41.572;23.732;2023-04-03T00:16:21;0.85;;;0.85;;
12776;SDS011;6452;41.572;23.732;2023-04-03T00:18:46;0.60;;;0.60;;
12776;SDS011;6452;41.572;23.732;2023-04-03T00:21:13;1.27;;;1.25;;
12776;SDS011;6452;41.572;23.732;2023-04-03T00:23:38;0.93;;;0.90;;
12776;SDS011;6452;41.572;23.732;2023-04-03T00:26:05;1.10;;;1.10;;
12776;SDS011;6452;41.572;23.732;2023-04-03T00:28:31;1.00;;;1.00;;
12776;SDS011;6452;41.572;23.732;2023-04-03T00:30:57;0.90;;;0.90;;
12776;SDS011;6452;41.572;23.732;2023-04-03T00:33:23;1.33;;;1.30;;
12776;SDS011;6452;41.572;23.732;2023-04-03T00:35:50;1.23;;;1.20;;
12776;SDS011;6452;41.572;23.732;2023-04-03T00:38:16;1.30;;;1.30;;
12776;SDS011;6452;41.572;23.732;2023-04-03T00:40:42;1.20;;;1.20;;
12776;SDS011;6452;41.572;23.732;2023-04-03T00:43:11;1.40;;;1.40;;
12776;SDS011;6452;41.572;23.732;2023-04-03T00:45:41;1.50;;;1.40;;
12776;SDS011;6452;41.572;23.732;2023-04-03T00:48:08;1.58;;;1.30;;
12776;SDS011;6452;41.572;23.732;2023-04-03T00:50:36;1.25;;;1.25;;
12776;SDS011;6452;41.572;23.732;2023-04-03T00:53:03;1.27;;;1.17;;
12776;SDS011;6452;41.572;23.732;2023-04-03T00:55:29;1.65;;;1.45;;
12776;SDS011;6452;41.572;23.732;2023-04-03T00:57:57;1.40;;;1.30;;
12776;SDS011;6452;41.572;23.732;2023-04-03T01:00:25;1.27;;;1.20;;
12776;SDS011;6452;41.572;23.732;2023-04-03T01:02:52;1.20;;;1.20;;
12776;SDS011;6452;41.572;23.732;2023-04-03T01:05:18;1.50;;;1.50;;
12776;SDS011;6452;41.572;23.732;2023-04-03T01:07:44;1.55;;;1.45;;
12776;SDS011;6452;41.572;23.732;2023-04-03T01:10:11;2.65;;;1.70;;
12776;SDS011;6452;41.572;23.732;2023-04-03T01:12:40;2.95;;;1.90;;
12776;SDS011;6452;41.572;23.732;2023-04-03T01:15:08;1.85;;;1.75;;
12776;SDS011;6452;41.572;23.732;2023-04-03T01:25:15;2.13;;;1.95;;
12776;SDS011;6452;41.572;23.732;2023-04-03T01:27:41;2.38;;;2.00;;
12776;SDS011;6452;41.572;23.732;2023-04-03T01:30:07;1.92;;;1.83;;
12776;SDS011;6452;41.572;23.732;2023-04-03T01:32:34;3.00;;;1.73;;
12776;SDS011;6452;41.572;23.732;2023-04-03T01:35:00;1.65;;;1.48;;
12776;SDS011;6452;41.572;23.732;2023-04-03T01:37:26;1.48;;;1.17;;
12776;SDS011;6452;41.572;23.732;2023-04-03T01:39:52;1.42;;;1.17;;
12776;SDS011;6452;41.572;23.732;2023-04-03T01:42:18;2.30;;;1.52;;
12776;SDS011;6452;41.572;23.732;2023-04-03T01:44:44;1.90;;;1.80;;
12776;SDS011;6452;41.572;23.732;2023-04-03T01:47:11;1.88;;;1.77;;
12776;SDS011;6452;41.572;23.732;2023-04-03T01:49:37;1.98;;;1.80;;
12776;SDS011;6452;41.572;23.732;2023-04-03T01:52:03;2.42;;;1.73;;
12776;SDS011;6452;41.572;23.732;2023-04-03T01:54:29;2.75;;;2.03;;
12776;SDS011;6452;41.572;23.732;2023-04-03T01:56:55;2.42;;;1.63;;
12776;SDS011;6452;41.572;23.732;2023-04-03T01:59:21;1.95;;;1.85;;
12776;SDS011;6452;41.572;23.732;2023-04-03T02:01:47;1.65;;;1.55;;
12776;SDS011;6452;41.572;23.732;2023-04-03T02:04:14;2.10;;;2.00;;
12776;SDS011;6452;41.572;23.732;2023-04-03T02:06:41;2.13;;;1.80;;
12776;SDS011;6452;41.572;23.732;2023-04-03T02:09:07;1.58;;;1.50;;
12776;SDS011;6452;41.572;23.732;2023-04-03T02:11:33;1.92;;;1.83;;
12776;SDS011;6452;41.572;23.732;2023-04-03T02:13:59;2.88;;;1.85;;
12776;SDS011;6452;41.572;23.732;2023-04-03T02:16:25;2.28;;;1.70;;
12776;SDS011;6452;41.572;23.732;2023-04-03T02:18:52;1.98;;;1.88;;
12776;SDS011;6452;41.572;23.732;2023-04-03T02:21:21;2.00;;;1.83;;
12776;SDS011;6452;41.572;23.732;2023-04-03T02:23:47;2.00;;;1.90;;
12776;SDS011;6452;41.572;23.732;2023-04-03T02:26:14;1.95;;;1.60;;
12776;SDS011;6452;41.572;23.732;2023-04-03T02:28:40;1.63;;;1.52;;
12776;SDS011;6452;41.572;23.732;2023-04-03T02:31:07;1.27;;;1.20;;
12776;SDS011;6452;41.572;23.732;2023-04-03T02:33:33;1.10;;;1.10;;
12776;SDS011;6452;41.572;23.732;2023-04-03T02:36:01;1.05;;;1.05;;
12776;SDS011;6452;41.572;23.732;2023-04-03T02:38:27;0.90;;;0.90;;
12776;SDS011;6452;41.572;23.732;2023-04-03T02:40:59;1.85;;;1.35;;
12776;SDS011;6452;41.572;23.732;2023-04-03T02:43:25;1.20;;;1.20;;
12776;SDS011;6452;41.572;23.732;2023-04-03T02:45:51;1.13;;;1.08;;
12776;SDS011;6452;41.572;23.732;2023-04-03T02:48:17;1.40;;;1.30;;
12776;SDS011;6452;41.572;23.732;2023-04-03T02:50:43;1.40;;;1.30;;
12776;SDS011;6452;41.572;23.732;2023-04-03T02:53:10;1.40;;;1.40;;
12776;SDS011;6452;41.572;23.732;2023-04-03T02:55:36;1.88;;;1.67;;
12776;SDS011;6452;41.572;23.732;2023-04-03T02:58:02;27.80;;;15.23;;
12776;SDS011;6452;41.572;23.732;2023-04-03T03:00:29;18.27;;;10.68;;
12776;SDS011;6452;41.572;23.732;2023-04-03T03:02:55;14.85;;;7.57;;
12776;SDS011;6452;41.572;23.732;2023-04-03T03:05:21;2.92;;;2.70;;
12776;SDS011;6452;41.572;23.732;2023-04-03T03:07:47;2.58;;;2.20;;
12776;SDS011;6452;41.572;23.732;2023-04-03T03:10:13;3.45;;;3.00;;
12776;SDS011;6452;41.572;23.732;2023-04-03T03:12:40;2.50;;;2.30;;
12776;SDS011;6452;41.572;23.732;2023-04-03T03:15:06;2.63;;;2.42;;
12776;SDS011;6452;41.572;23.732;2023-04-03T03:17:32;4.43;;;2.83;;
12776;SDS011;6452;41.572;23.732;2023-04-03T03:19:58;2.28;;;2.13;;
12776;SDS011;6452;41.572;23.732;2023-04-03T03:22:25;1.80;;;1.58;;
12776;SDS011;6452;41.572;23.732;2023-04-03T03:24:51;1.88;;;1.77;;
12776;SDS011;6452;41.572;23.732;2023-04-03T03:27:17;2.95;;;2.10;;
12776;SDS011;6452;41.572;23.732;2023-04-03T03:29:43;2.03;;;1.92;;
12776;SDS011;6452;41.572;23.732;2023-04-03T03:32:09;2.35;;;2.15;;
12776;SDS011;6452;41.572;23.732;2023-04-03T03:34:35;2.92;;;2.70;;
12776;SDS011;6452;41.572;23.732;2023-04-03T03:37:02;3.15;;;2.90;;
12776;SDS011;6452;41.572;23.732;2023-04-03T03:39:28;2.65;;;2.45;;
12776;SDS011;6452;41.572;23.732;2023-04-03T03:41:54;2.42;;;1.85;;
12776;SDS011;6452;41.572;23.732;2023-04-03T03:44:20;2.47;;;2.03;;
12776;SDS011;6452;41.572;23.732;2023-04-03T03:46:46;2.00;;;1.90;;
12776;SDS011;6452;41.572;23.732;2023-04-03T03:49:12;2.28;;;2.10;;
12776;SDS011;6452;41.572;23.732;2023-04-03T03:51:39;1.90;;;1.80;;
12776;SDS011;6452;41.572;23.732;2023-04-03T03:54:05;1.83;;;1.80;;
12776;SDS011;6452;41.572;23.732;2023-04-03T03:56:31;3.38;;;2.15;;
12776;SDS011;6452;41.572;23.732;2023-04-03T03:58:57;5.10;;;3.35;;
12776;SDS011;6452;41.572;23.732;2023-04-03T04:01:23;8.20;;;4.03;;
12776;SDS011;6452;41.572;23.732;2023-04-03T04:03:49;3.40;;;2.70;;
12776;SDS011;6452;41.572;23.732;2023-04-03T04:06:15;3.30;;;2.38;;
12776;SDS011;6452;41.572;23.732;2023-04-03T04:08:41;3.10;;;2.80;;
12776;SDS011;6452;41.572;23.732;2023-04-03T04:11:07;3.47;;;3.13;;
12776;SDS011;6452;41.572;23.732;2023-04-03T04:13:33;5.15;;;3.53;;
12776;SDS011;6452;41.572;23.732;2023-04-03T04:15:58;4.45;;;3.47;;
12776;SDS011;6452;41.572;23.732;2023-04-03T04:18:25;6.25;;;4.25;;
12776;SDS011;6452;41.572;23.732;2023-04-03T04:20:51;8.07;;;3.80;;
12776;SDS011;6452;41.572;23.732;2023-04-03T04:23:17;7.18;;;3.88;;
12776;SDS011;6452;41.572;23.732;2023-04-03T04:25:46;4.85;;;3.70;;
12776;SDS011;6452;41.572;23.732;2023-04-03T04:28:13;5.07;;;4.10;;
12776;SDS011;6452;41.572;23.732;2023-04-03T04:30:38;5.78;;;3.95;;
12776;SDS011;6452;41.572;23.732;2023-04-03T04:33:05;3.78;;;3.25;;
12776;SDS011;6452;41.572;23.732;2023-04-03T04:35:32;8.73;;;3.80;;
12776;SDS011;6452;41.572;23.732;2023-04-03T04:37:58;6.32;;;4.07;;
12776;SDS011;6452;41.572;23.732;2023-04-03T04:40:28;6.82;;;4.32;;
12776;SDS011;6452;41.572;23.732;2023-04-03T04:42:54;7.82;;;5.20;;
12776;SDS011;6452;41.572;23.732;2023-04-03T04:45:20;6.15;;;4.90;;
12776;SDS011;6452;41.572;23.732;2023-04-03T04:47:46;4.75;;;4.20;;
12776;SDS011;6452;41.572;23.732;2023-04-03T04:50:12;4.93;;;4.38;;
12776;SDS011;6452;41.572;23.732;2023-04-03T04:52:38;10.05;;;4.53;;
12776;SDS011;6452;41.572;23.732;2023-04-03T04:55:04;6.25;;;4.10;;
12776;SDS011;6452;41.572;23.732;2023-04-03T04:57:31;6.40;;;4.45;;
12776;SDS011;6452;41.572;23.732;2023-04-03T04:59:57;4.50;;;3.92;;
12776;SDS011;6452;41.572;23.732;2023-04-03T05:02:23;4.95;;;4.55;;
12776;SDS011;6452;41.572;23.732;2023-04-03T05:04:50;7.07;;;4.55;;
12776;SDS011;6452;41.572;23.732;2023-04-03T05:07:17;6.47;;;4.80;;
12776;SDS011;6452;41.572;23.732;2023-04-03T05:09:47;7.38;;;4.90;;
12776;SDS011;6452;41.572;23.732;2023-04-03T05:12:13;11.30;;;6.07;;
12776;SDS011;6452;41.572;23.732;2023-04-03T05:14:39;11.00;;;6.20;;
12776;SDS011;6452;41.572;23.732;2023-04-03T05:17:05;10.13;;;6.28;;
12776;SDS011;6452;41.572;23.732;2023-04-03T05:19:31;14.02;;;9.18;;
12776;SDS011;6452;41.572;23.732;2023-04-03T05:21:58;12.93;;;9.20;;
12776;SDS011;6452;41.572;23.732;2023-04-03T05:24:24;18.38;;;9.57;;
12776;SDS011;6452;41.572;23.732;2023-04-03T05:26:51;16.45;;;9.68;;
12776;SDS011;6452;41.572;23.732;2023-04-03T05:29:21;21.75;;;12.80;;
12776;SDS011;6452;41.572;23.732;2023-04-03T05:31:51;14.43;;;8.82;;
12776;SDS011;6452;41.572;23.732;2023-04-03T05:34:17;14.23;;;7.70;;
12776;SDS011;6452;41.572;23.732;2023-04-03T05:36:43;10.63;;;6.45;;
12776;SDS011;6452;41.572;23.732;2023-04-03T05:39:10;6.22;;;4.03;;
12776;SDS011;6452;41.572;23.732;2023-04-03T05:41:36;7.05;;;4.22;;
12776;SDS011;6452;41.572;23.732;2023-04-03T05:44:02;4.32;;;3.35;;
12776;SDS011;6452;41.572;23.732;2023-04-03T05:46:28;5.05;;;4.13;;
12776;SDS011;6452;41.572;23.732;2023-04-03T05:48:55;6.03;;;4.15;;
12776;SDS011;6452;41.572;23.732;2023-04-03T05:51:22;7.18;;;3.58;;
12776;SDS011;6452;41.572;23.732;2023-04-03T05:53:49;4.63;;;3.00;;
12776;SDS011;6452;41.572;23.732;2023-04-03T05:56:18;4.32;;;3.03;;
12776;SDS011;6452;41.572;23.732;2023-04-03T05:58:44;3.78;;;3.47;;
12776;SDS011;6452;41.572;23.732;2023-04-03T06:01:10;3.80;;;3.08;;
12776;SDS011;6452;41.572;23.732;2023-04-03T06:03:37;4.75;;;3.88;;
12776;SDS011;6452;41.572;23.732;2023-04-03T06:06:05;5.45;;;4.07;;
12776;SDS011;6452;41.572;23.732;2023-04-03T06:08:31;3.55;;;3.25;;
12776;SDS011;6452;41.572;23.732;2023-04-03T06:10:57;8.52;;;4.90;;
12776;SDS011;6452;41.572;23.732;2023-04-03T06:13:22;6.60;;;4.50;;
12776;SDS011;6452;41.572;23.732;2023-04-03T06:15:49;5.78;;;4.55;;
12776;SDS011;6452;41.572;23.732;2023-04-03T06:18:15;8.50;;;5.55;;
12776;SDS011;6452;41.572;23.732;2023-04-03T06:20:41;8.07;;;5.43;;
12776;SDS011;6452;41.572;23.732;2023-04-03T06:23:08;8.48;;;5.35;;
12776;SDS011;6452;41.572;23.732;2023-04-03T06:25:34;6.25;;;4.57;;
12776;SDS011;6452;41.572;23.732;2023-04-03T06:28:01;8.85;;;6.03;;
12776;SDS011;6452;41.572;23.732;2023-04-03T06:30:27;10.10;;;6.68;;
12776;SDS011;6452;41.572;23.732;2023-04-03T06:32:53;10.15;;;7.05;;
12776;SDS011;6452;41.572;23.732;2023-04-03T06:35:19;8.85;;;6.68;;
12776;SDS011;6452;41.572;23.732;2023-04-03T06:37:46;8.02;;;5.35;;
12776;SDS011;6452;41.572;23.732;2023-04-03T06:40:15;5.20;;;4.72;;
12776;SDS011;6452;41.572;23.732;2023-04-03T06:42:44;5.15;;;4.55;;
12776;SDS011;6452;41.572;23.732;2023-04-03T06:45:11;7.28;;;4.25;;
12776;SDS011;6452;41.572;23.732;2023-04-03T06:47:37;8.15;;;5.35;;
12776;SDS011;6452;41.572;23.732;2023-04-03T06:50:03;8.35;;;5.95;;
12776;SDS011;6452;41.572;23.732;2023-04-03T06:52:31;6.43;;;5.65;;
12776;SDS011;6452;41.572;23.732;2023-04-03T06:54:57;6.53;;;5.72;;
12776;SDS011;6452;41.572;23.732;2023-04-03T06:57:25;9.00;;;6.20;;
12776;SDS011;6452;41.572;23.732;2023-04-03T06:59:54;9.75;;;5.68;;
12776;SDS011;6452;41.572;23.732;2023-04-03T07:02:24;7.80;;;4.85;;
12776;SDS011;6452;41.572;23.732;2023-04-03T07:04:50;7.50;;;5.65;;
12776;SDS011;6452;41.572;23.732;2023-04-03T07:07:17;8.45;;;5.97;;
12776;SDS011;6452;41.572;23.732;2023-04-03T07:09:43;9.80;;;6.53;;
12776;SDS011;6452;41.572;23.732;2023-04-03T07:12:09;11.10;;;7.85;;
12776;SDS011;6452;41.572;23.732;2023-04-03T07:14:36;11.48;;;7.85;;
12776;SDS011;6452;41.572;23.732;2023-04-03T07:17:02;12.82;;;9.13;;
12776;SDS011;6452;41.572;23.732;2023-04-03T07:19:28;13.07;;;9.15;;
12776;SDS011;6452;41.572;23.732;2023-04-03T07:21:54;14.50;;;9.13;;
12776;SDS011;6452;41.572;23.732;2023-04-03T07:24:21;13.13;;;8.27;;
12776;SDS011;6452;41.572;23.732;2023-04-03T07:26:50;13.45;;;7.85;;
12776;SDS011;6452;41.572;23.732;2023-04-03T07:29:16;8.38;;;6.70;;
12776;SDS011;6452;41.572;23.732;2023-04-03T07:31:43;11.95;;;8.38;;
12776;SDS011;6452;41.572;23.732;2023-04-03T07:34:10;12.68;;;7.85;;
12776;SDS011;6452;41.572;23.732;2023-04-03T07:36:36;11.18;;;6.05;;
12776;SDS011;6452;41.572;23.732;2023-04-03T07:39:03;7.22;;;6.10;;
12776;SDS011;6452;41.572;23.732;2023-04-03T07:41:29;11.73;;;7.35;;
12776;SDS011;6452;41.572;23.732;2023-04-03T07:43:55;9.55;;;7.35;;
12776;SDS011;6452;41.572;23.732;2023-04-03T07:46:22;11.23;;;7.22;;
12776;SDS011;6452;41.572;23.732;2023-04-03T07:48:48;8.80;;;5.38;;
12776;SDS011;6452;41.572;23.732;2023-04-03T07:51:14;6.63;;;4.88;;
12776;SDS011;6452;41.572;23.732;2023-04-03T07:53:40;5.72;;;4.40;;
12776;SDS011;6452;41.572;23.732;2023-04-03T07:56:06;4.72;;;4.10;;
12776;SDS011;6452;41.572;23.732;2023-04-03T07:58:32;10.15;;;6.70;;
12776;SDS011;6452;41.572;23.732;2023-04-03T08:00:58;15.38;;;9.52;;
12776;SDS011;6452;41.572;23.732;2023-04-03T08:03:25;17.55;;;12.02;;
12776;SDS011;6452;41.572;23.732;2023-04-03T08:05:51;7.85;;;5.65;;
12776;SDS011;6452;41.572;23.732;2023-04-03T08:08:20;7.38;;;4.13;;
12776;SDS011;6452;41.572;23.732;2023-04-03T08:10:50;3.00;;;2.72;;
12776;SDS011;6452;41.572;23.732;2023-04-03T08:13:15;3.97;;;3.67;;
12776;SDS011;6452;41.572;23.732;2023-04-03T08:15:42;6.30;;;4.28;;
12776;SDS011;6452;41.572;23.732;2023-04-03T08:18:09;4.32;;;3.80;;
12776;SDS011;6452;41.572;23.732;2023-04-03T08:20:35;4.28;;;3.88;;
12776;SDS011;6452;41.572;23.732;2023-04-03T08:23:01;4.70;;;4.22;;
12776;SDS011;6452;41.572;23.732;2023-04-03T08:25:27;5.78;;;4.97;;
12776;SDS011;6452;41.572;23.732;2023-04-03T08:27:55;4.05;;;3.63;;
12776;SDS011;6452;41.572;23.732;2023-04-03T08:30:21;3.28;;;2.97;;
12776;SDS011;6452;41.572;23.732;2023-04-03T08:32:47;3.53;;;3.30;;
12776;SDS011;6452;41.572;23.732;2023-04-03T08:35:13;7.50;;;5.43;;
12776;SDS011;6452;41.572;23.732;2023-04-03T08:37:39;3.92;;;3.17;;
12776;SDS011;6452;41.572;23.732;2023-04-03T08:40:06;3.83;;;3.38;;
12776;SDS011;6452;41.572;23.732;2023-04-03T08:42:38;5.72;;;5.13;;
12776;SDS011;6452;41.572;23.732;2023-04-03T08:45:12;5.65;;;5.10;;
12776;SDS011;6452;41.572;23.732;2023-04-03T08:50:11;8.32;;;6.18;;
12776;SDS011;6452;41.572;23.732;2023-04-03T08:55:05;8.73;;;6.95;;
12776;SDS011;6452;41.572;23.732;2023-04-03T08:57:35;11.70;;;8.68;;
12776;SDS011;6452;41.572;23.732;2023-04-03T09:02:52;22.38;;;16.00;;
12776;SDS011;6452;41.572;23.732;2023-04-03T09:05:20;21.27;;;12.00;;
12776;SDS011;6452;41.572;23.732;2023-04-03T09:07:55;17.33;;;9.82;;
12776;SDS011;6452;41.572;23.732;2023-04-03T09:10:32;14.88;;;10.18;;
12776;SDS011;6452;41.572;23.732;2023-04-03T09:13:52;17.58;;;10.43;;
12776;SDS011;6452;41.572;23.732;2023-04-03T09:15:57;14.02;;;9.73;;
12776;SDS011;6452;41.572;23.732;2023-04-03T09:18:28;11.63;;;9.43;;
12776;SDS011;6452;41.572;23.732;2023-04-03T09:23:42;12.38;;;8.70;;
12776;SDS011;6452;41.572;23.732;2023-04-03T09:26:11;10.45;;;6.18;;
12776;SDS011;6452;41.572;23.732;2023-04-03T09:28:40;8.25;;;6.15;;
12776;SDS011;6452;41.572;23.732;2023-04-03T09:33:46;13.55;;;10.52;;
12776;SDS011;6452;41.572;23.732;2023-04-03T09:36:12;9.13;;;6.47;;
12776;SDS011;6452;41.572;23.732;2023-04-03T09:38:38;10.80;;;7.50;;
12776;SDS011;6452;41.572;23.732;2023-04-03T09:41:16;11.23;;;6.53;;
12776;SDS011;6452;41.572;23.732;2023-04-03T09:43:51;11.35;;;7.10;;
12776;SDS011;6452;41.572;23.732;2023-04-03T09:49:18;10.57;;;7.18;;
12776;SDS011;6452;41.572;23.732;2023-04-03T09:51:36;9.05;;;7.03;;
12776;SDS011;6452;41.572;23.732;2023-04-03T09:54:23;9.82;;;7.43;;
12776;SDS011;6452;41.572;23.732;2023-04-03T09:56:49;12.32;;;8.00;;
12776;SDS011;6452;41.572;23.732;2023-04-03T09:59:16;13.60;;;10.75;;
12776;SDS011;6452;41.572;23.732;2023-04-03T10:01:43;13.63;;;11.13;;
12776;SDS011;6452;41.572;23.732;2023-04-03T10:04:11;12.15;;;10.10;;
12776;SDS011;6452;41.572;23.732;2023-04-03T10:09:19;12.50;;;9.57;;
12776;SDS011;6452;41.572;23.732;2023-04-03T10:12:03;10.57;;;8.38;;
12776;SDS011;6452;41.572;23.732;2023-04-03T10:19:53;10.50;;;7.18;;
12776;SDS011;6452;41.572;23.732;2023-04-03T10:22:30;7.55;;;5.93;;
12776;SDS011;6452;41.572;23.732;2023-04-03T10:32:44;8.80;;;6.20;;
12776;SDS011;6452;41.572;23.732;2023-04-03T10:38:27;9.13;;;6.10;;
12776;SDS011;6452;41.572;23.732;2023-04-03T10:45:44;9.32;;;7.75;;
12776;SDS011;6452;41.572;23.732;2023-04-03T10:56:03;25.75;;;16.35;;
12776;SDS011;6452;41.572;23.732;2023-04-03T10:58:37;20.38;;;15.32;;
12776;SDS011;6452;41.572;23.732;2023-04-03T11:01:08;25.05;;;16.10;;
12776;SDS011;6452;41.572;23.732;2023-04-03T11:03:36;26.58;;;17.58;;
12776;SDS011;6452;41.572;23.732;2023-04-03T11:06:08;24.20;;;14.35;;
12776;SDS011;6452;41.572;23.732;2023-04-03T11:08:39;16.48;;;12.45;;
12776;SDS011;6452;41.572;23.732;2023-04-03T11:11:09;19.90;;;12.07;;
12776;SDS011;6452;41.572;23.732;2023-04-03T11:13:38;24.10;;;14.00;;
12776;SDS011;6452;41.572;23.732;2023-04-03T11:16:06;19.58;;;13.60;;
12776;SDS011;6452;41.572;23.732;2023-04-03T11:18:35;14.50;;;10.68;;
12776;SDS011;6452;41.572;23.732;2023-04-03T11:21:22;15.40;;;11.48;;
12776;SDS011;6452;41.572;23.732;2023-04-03T11:23:50;14.20;;;11.73;;
12776;SDS011;6452;41.572;23.732;2023-04-03T11:26:18;18.40;;;11.88;;
12776;SDS011;6452;41.572;23.732;2023-04-03T11:28:46;19.40;;;12.88;;
12776;SDS011;6452;41.572;23.732;2023-04-03T11:31:19;13.82;;;9.32;;
12776;SDS011;6452;41.572;23.732;2023-04-03T11:41:48;4.63;;;3.80;;
12776;SDS011;6452;41.572;23.732;2023-04-03T11:44:27;5.82;;;3.75;;
12776;SDS011;6452;41.572;23.732;2023-04-03T11:46:55;3.97;;;3.65;;
12776;SDS011;6452;41.572;23.732;2023-04-03T11:52:09;9.48;;;7.32;;
12776;SDS011;6452;41.572;23.732;2023-04-03T11:54:45;15.07;;;9.18;;
12776;SDS011;6452;41.572;23.732;2023-04-03T11:58:14;19.98;;;11.77;;
12776;SDS011;6452;41.572;23.732;2023-04-03T12:02:52;15.90;;;11.25;;
12776;SDS011;6452;41.572;23.732;2023-04-03T12:05:28;13.02;;;10.27;;
12776;SDS011;6452;41.572;23.732;2023-04-03T12:10:38;6.82;;;6.13;;
12776;SDS011;6452;41.572;23.732;2023-04-03T12:13:14;8.93;;;5.68;;
12776;SDS011;6452;41.572;23.732;2023-04-03T12:15:47;6.50;;;4.70;;
12776;SDS011;6452;41.572;23.732;2023-04-03T12:18:31;3.63;;;3.33;;
12776;SDS011;6452;41.572;23.732;2023-04-03T12:20:58;3.53;;;3.22;;
12776;SDS011;6452;41.572;23.732;2023-04-03T12:23:25;6.20;;;2.88;;
12776;SDS011;6452;41.572;23.732;2023-04-03T12:25:51;3.72;;;3.25;;
12776;SDS011;6452;41.572;23.732;2023-04-03T12:28:25;4.43;;;3.65;;
12776;SDS011;6452;41.572;23.732;2023-04-03T12:30:53;4.00;;;3.00;;
12776;SDS011;6452;41.572;23.732;2023-04-03T12:33:23;3.92;;;2.78;;
12776;SDS011;6452;41.572;23.732;2023-04-03T12:35:57;4.32;;;2.60;;
12776;SDS011;6452;41.572;23.732;2023-04-03T12:41:18;2.17;;;1.98;;
12776;SDS011;6452;41.572;23.732;2023-04-03T12:46:22;3.05;;;2.35;;
12776;SDS011;6452;41.572;23.732;2023-04-03T12:51:36;7.53;;;6.07;;
12776;SDS011;6452;41.572;23.732;2023-04-03T12:54:13;9.38;;;6.63;;
12776;SDS011;6452;41.572;23.732;2023-04-03T12:56:40;5.13;;;4.60;;
12776;SDS011;6452;41.572;23.732;2023-04-03T12:59:14;4.55;;;4.03;;
12776;SDS011;6452;41.572;23.732;2023-04-03T13:01:43;5.55;;;3.35;;
12776;SDS011;6452;41.572;23.732;2023-04-03T13:04:10;3.55;;;3.25;;
12776;SDS011;6452;41.572;23.732;2023-04-03T13:06:39;4.70;;;3.83;;
12776;SDS011;6452;41.572;23.732;2023-04-03T13:09:05;4.32;;;3.95;;
12776;SDS011;6452;41.572;23.732;2023-04-03T13:11:39;3.60;;;3.20;;
12776;SDS011;6452;41.572;23.732;2023-04-03T13:14:17;2.80;;;2.10;;
12776;SDS011;6452;41.572;23.732;2023-04-03T13:16:52;1.67;;;1.58;;
12776;SDS011;6452;41.572;23.732;2023-04-03T13:19:18;1.70;;;1.63;;
12776;SDS011;6452;41.572;23.732;2023-04-03T13:21:44;2.78;;;1.90;;
12776;SDS011;6452;41.572;23.732;2023-04-03T13:24:10;1.65;;;1.65;;
12776;SDS011;6452;41.572;23.732;2023-04-03T13:26:37;1.95;;;1.83;;
12776;SDS011;6452;41.572;23.732;2023-04-03T13:29:05;1.42;;;1.42;;
12776;SDS011;6452;41.572;23.732;2023-04-03T13:31:35;2.88;;;2.67;;
12776;SDS011;6452;41.572;23.732;2023-04-03T13:34:16;3.40;;;3.10;;
12776;SDS011;6452;41.572;23.732;2023-04-03T13:36:44;3.20;;;2.80;;
12776;SDS011;6452;41.572;23.732;2023-04-03T13:41:40;3.75;;;3.45;;
12776;SDS011;6452;41.572;23.732;2023-04-03T13:46:49;2.70;;;2.28;;
12776;SDS011;6452;41.572;23.732;2023-04-03T13:49:20;1.38;;;1.38;;
12776;SDS011;6452;41.572;23.732;2023-04-03T13:51:46;1.30;;;1.27;;
12776;SDS011;6452;41.572;23.732;2023-04-03T13:54:17;1.42;;;1.40;;
12776;SDS011;6452;41.572;23.732;2023-04-03T13:56:43;2.10;;;1.25;;
12776;SDS011;6452;41.572;23.732;2023-04-03T14:01:41;1.63;;;1.42;;
12776;SDS011;6452;41.572;23.732;2023-04-03T14:04:11;2.28;;;2.13;;
12776;SDS011;6452;41.572;23.732;2023-04-03T14:06:38;2.22;;;2.08;;
12776;SDS011;6452;41.572;23.732;2023-04-03T14:09:04;2.20;;;2.03;;
12776;SDS011;6452;41.572;23.732;2023-04-03T14:11:30;2.42;;;2.22;;
12776;SDS011;6452;41.572;23.732;2023-04-03T14:13:58;4.28;;;3.08;;
12776;SDS011;6452;41.572;23.732;2023-04-03T14:16:26;4.38;;;2.28;;
12776;SDS011;6452;41.572;23.732;2023-04-03T14:18:53;1.85;;;1.73;;
12776;SDS011;6452;41.572;23.732;2023-04-03T14:21:23;1.73;;;1.63;;
12776;SDS011;6452;41.572;23.732;2023-04-03T14:23:53;3.13;;;2.50;;
12776;SDS011;6452;41.572;23.732;2023-04-03T14:26:21;4.93;;;2.97;;
12776;SDS011;6452;41.572;23.732;2023-04-03T14:28:48;4.10;;;3.10;;
12776;SDS011;6452;41.572;23.732;2023-04-03T14:31:15;4.18;;;2.92;;
12776;SDS011;6452;41.572;23.732;2023-04-03T14:33:41;2.08;;;1.90;;
12776;SDS011;6452;41.572;23.732;2023-04-03T14:36:15;2.45;;;2.08;;
12776;SDS011;6452;41.572;23.732;2023-04-03T14:38:41;3.63;;;1.55;;
12776;SDS011;6452;41.572;23.732;2023-04-03T14:41:09;3.70;;;2.47;;
12776;SDS011;6452;41.572;23.732;2023-04-03T14:43:36;5.63;;;4.15;;
12776;SDS011;6452;41.572;23.732;2023-04-03T14:46:01;10.30;;;6.20;;
12776;SDS011;6452;41.572;23.732;2023-04-03T14:48:28;2.60;;;2.35;;
12776;SDS011;6452;41.572;23.732;2023-04-03T14:50:55;2.67;;;2.47;;
12776;SDS011;6452;41.572;23.732;2023-04-03T14:53:21;3.75;;;3.15;;
12776;SDS011;6452;41.572;23.732;2023-04-03T14:55:51;2.45;;;2.30;;
12776;SDS011;6452;41.572;23.732;2023-04-03T14:58:18;3.72;;;3.42;;
12776;SDS011;6452;41.572;23.732;2023-04-03T15:00:45;2.60;;;2.20;;
12776;SDS011;6452;41.572;23.732;2023-04-03T15:03:18;3.58;;;2.92;;
12776;SDS011;6452;41.572;23.732;2023-04-03T15:05:45;3.50;;;3.20;;
12776;SDS011;6452;41.572;23.732;2023-04-03T15:08:21;5.90;;;3.72;;
12776;SDS011;6452;41.572;23.732;2023-04-03T15:10:48;5.75;;;3.58;;
12776;SDS011;6452;41.572;23.732;2023-04-03T15:13:14;3.67;;;2.33;;
12776;SDS011;6452;41.572;23.732;2023-04-03T15:15:40;22.58;;;11.32;;
12776;SDS011;6452;41.572;23.732;2023-04-03T15:18:06;22.50;;;11.23;;
12776;SDS011;6452;41.572;23.732;2023-04-03T15:20:32;3.20;;;1.95;;
12776;SDS011;6452;41.572;23.732;2023-04-03T15:22:59;2.00;;;1.63;;
12776;SDS011;6452;41.572;23.732;2023-04-03T15:25:29;4.68;;;4.25;;
12776;SDS011;6452;41.572;23.732;2023-04-03T15:27:55;8.35;;;5.88;;
12776;SDS011;6452;41.572;23.732;2023-04-03T15:30:22;13.20;;;8.35;;
12776;SDS011;6452;41.572;23.732;2023-04-03T15:32:48;2.05;;;1.73;;
12776;SDS011;6452;41.572;23.732;2023-04-03T15:35:15;1.77;;;1.65;;
12776;SDS011;6452;41.572;23.732;2023-04-03T15:37:41;2.10;;;2.00;;
12776;SDS011;6452;41.572;23.732;2023-04-03T15:40:07;2.67;;;2.50;;
12776;SDS011;6452;41.572;23.732;2023-04-03T15:42:34;2.10;;;2.00;;
12776;SDS011;6452;41.572;23.732;2023-04-03T15:45:00;3.58;;;3.28;;
12776;SDS011;6452;41.572;23.732;2023-04-03T15:47:26;3.45;;;3.20;;
12776;SDS011;6452;41.572;23.732;2023-04-03T15:49:53;4.15;;;3.83;;
12776;SDS011;6452;41.572;23.732;2023-04-03T15:52:20;2.80;;;2.60;;
12776;SDS011;6452;41.572;23.732;2023-04-03T15:54:46;2.58;;;2.38;;
12776;SDS011;6452;41.572;23.732;2023-04-03T15:57:12;3.85;;;1.85;;
12776;SDS011;6452;41.572;23.732;2023-04-03T15:59:39;1.60;;;1.50;;
12776;SDS011;6452;41.572;23.732;2023-04-03T16:02:06;2.13;;;1.63;;
12776;SDS011;6452;41.572;23.732;2023-04-03T16:04:33;1.90;;;1.80;;
12776;SDS011;6452;41.572;23.732;2023-04-03T16:07:03;3.25;;;2.45;;
12776;SDS011;6452;41.572;23.732;2023-04-03T16:09:29;3.10;;;2.63;;
12776;SDS011;6452;41.572;23.732;2023-04-03T16:11:59;7.65;;;5.68;;
12776;SDS011;6452;41.572;23.732;2023-04-03T16:14:26;10.13;;;7.32;;